Weather at Aeropuerto Internacional Gral. Rodolfo Sánchez Taboada

Public forecast

Using degrees Celsius for public forecast. Weather courtesy of forecast.io.

Current aviation weather report (METAR) for Aeropuerto Internacional Gral. Rodolfo Sánchez Taboada

2024/05/28 22:40 (retrieved 1 hour ago)

MMML 282240Z 18006KT 10SM FEW200 39/M09 A2981 RMK 8/001

Aviation forecast (TAF) for Aeropuerto Internacional Gral. Rodolfo Sánchez Taboada

2024/05/28 18:05 (retrieved 6 hours ago)

TAF MMML 281700Z 2818/2918 25010KT P6SM SKC BECMG 2821/2822 28015KT FM290300 30005KT P6SM SKC BECMG 2917/2918 24010KT